sensor_id;sensor_type;location;lat;lon;timestamp;P1;durP1;ratioP1;P2;durP2;ratioP2
4132;SDS011;2080;51.038;7.008;2022-07-10T00:01:15;550.23;;;485.63;;
4132;SDS011;2080;51.038;7.008;2022-07-10T00:03:43;503.03;;;423.67;;
4132;SDS011;2080;51.038;7.008;2022-07-10T00:06:09;490.60;;;399.90;;
4132;SDS011;2080;51.038;7.008;2022-07-10T00:08:35;484.77;;;402.70;;
4132;SDS011;2080;51.038;7.008;2022-07-10T00:11:00;539.63;;;478.67;;
4132;SDS011;2080;51.038;7.008;2022-07-10T00:13:25;513.73;;;447.13;;
4132;SDS011;2080;51.038;7.008;2022-07-10T00:15:51;549.03;;;490.70;;
4132;SDS011;2080;51.038;7.008;2022-07-10T00:18:16;527.67;;;470.93;;
4132;SDS011;2080;51.038;7.008;2022-07-10T00:20:42;432.33;;;238.93;;
4132;SDS011;2080;51.038;7.008;2022-07-10T00:23:09;440.40;;;262.30;;
4132;SDS011;2080;51.038;7.008;2022-07-10T00:25:35;485.03;;;375.07;;
4132;SDS011;2080;51.038;7.008;2022-07-10T00:28:00;585.60;;;524.53;;
4132;SDS011;2080;51.038;7.008;2022-07-10T00:30:26;550.20;;;491.50;;
4132;SDS011;2080;51.038;7.008;2022-07-10T00:32:51;438.70;;;274.37;;
4132;SDS011;2080;51.038;7.008;2022-07-10T00:35:17;532.23;;;474.17;;
4132;SDS011;2080;51.038;7.008;2022-07-10T00:37:45;412.77;;;183.60;;
4132;SDS011;2080;51.038;7.008;2022-07-10T00:40:12;453.53;;;305.13;;
4132;SDS011;2080;51.038;7.008;2022-07-10T00:42:40;406.40;;;207.63;;
4132;SDS011;2080;51.038;7.008;2022-07-10T00:45:06;393.97;;;174.70;;
4132;SDS011;2080;51.038;7.008;2022-07-10T00:47:31;707.67;;;634.63;;
4132;SDS011;2080;51.038;7.008;2022-07-10T00:49:59;495.60;;;406.13;;
4132;SDS011;2080;51.038;7.008;2022-07-10T00:52:25;405.20;;;185.37;;
4132;SDS011;2080;51.038;7.008;2022-07-10T00:54:51;406.07;;;191.90;;
4132;SDS011;2080;51.038;7.008;2022-07-10T00:57:19;481.37;;;377.73;;
4132;SDS011;2080;51.038;7.008;2022-07-10T00:59:51;481.57;;;378.63;;
4132;SDS011;2080;51.038;7.008;2022-07-10T01:02:19;469.80;;;332.90;;
4132;SDS011;2080;51.038;7.008;2022-07-10T01:04:47;448.13;;;294.00;;
4132;SDS011;2080;51.038;7.008;2022-07-10T01:07:12;429.73;;;247.83;;
4132;SDS011;2080;51.038;7.008;2022-07-10T01:09:42;463.63;;;317.97;;
4132;SDS011;2080;51.038;7.008;2022-07-10T01:12:11;569.83;;;511.07;;
4132;SDS011;2080;51.038;7.008;2022-07-10T01:14:37;398.60;;;174.00;;
4132;SDS011;2080;51.038;7.008;2022-07-10T01:17:04;397.90;;;182.80;;
4132;SDS011;2080;51.038;7.008;2022-07-10T01:19:31;384.90;;;144.33;;
4132;SDS011;2080;51.038;7.008;2022-07-10T01:21:59;660.93;;;596.20;;
4132;SDS011;2080;51.038;7.008;2022-07-10T01:24:26;429.00;;;243.63;;
4132;SDS011;2080;51.038;7.008;2022-07-10T01:26:54;800.67;;;726.23;;
4132;SDS011;2080;51.038;7.008;2022-07-10T01:29:20;484.23;;;349.73;;
4132;SDS011;2080;51.038;7.008;2022-07-10T01:31:47;504.73;;;398.87;;
4132;SDS011;2080;51.038;7.008;2022-07-10T01:34:12;401.37;;;158.07;;
4132;SDS011;2080;51.038;7.008;2022-07-10T01:36:37;382.03;;;139.50;;
4132;SDS011;2080;51.038;7.008;2022-07-10T01:39:03;408.67;;;175.83;;
4132;SDS011;2080;51.038;7.008;2022-07-10T01:41:30;445.43;;;288.37;;
4132;SDS011;2080;51.038;7.008;2022-07-10T01:43:55;684.33;;;617.40;;
4132;SDS011;2080;51.038;7.008;2022-07-10T01:46:21;434.60;;;258.53;;
4132;SDS011;2080;51.038;7.008;2022-07-10T01:48:49;608.97;;;541.13;;
4132;SDS011;2080;51.038;7.008;2022-07-10T01:51:17;516.13;;;423.93;;
4132;SDS011;2080;51.038;7.008;2022-07-10T01:53:42;473.77;;;348.03;;
4132;SDS011;2080;51.038;7.008;2022-07-10T01:56:11;423.73;;;225.17;;
4132;SDS011;2080;51.038;7.008;2022-07-10T01:58:37;459.73;;;301.60;;
4132;SDS011;2080;51.038;7.008;2022-07-10T02:01:03;452.67;;;297.17;;
4132;SDS011;2080;51.038;7.008;2022-07-10T02:03:31;403.77;;;181.43;;
4132;SDS011;2080;51.038;7.008;2022-07-10T02:06:16;461.43;;;292.83;;
4132;SDS011;2080;51.038;7.008;2022-07-10T02:08:41;468.37;;;320.63;;
4132;SDS011;2080;51.038;7.008;2022-07-10T02:11:11;490.37;;;336.00;;
4132;SDS011;2080;51.038;7.008;2022-07-10T02:13:37;504.07;;;389.03;;
4132;SDS011;2080;51.038;7.008;2022-07-10T02:16:05;539.13;;;452.67;;
4132;SDS011;2080;51.038;7.008;2022-07-10T02:18:33;531.83;;;449.17;;
4132;SDS011;2080;51.038;7.008;2022-07-10T02:21:01;491.77;;;377.83;;
4132;SDS011;2080;51.038;7.008;2022-07-10T02:23:27;410.37;;;204.57;;
4132;SDS011;2080;51.038;7.008;2022-07-10T02:25:55;434.30;;;286.90;;
4132;SDS011;2080;51.038;7.008;2022-07-10T02:28:23;407.10;;;224.30;;
4132;SDS011;2080;51.038;7.008;2022-07-10T02:30:48;492.33;;;383.17;;
4132;SDS011;2080;51.038;7.008;2022-07-10T02:33:16;485.93;;;390.53;;
4132;SDS011;2080;51.038;7.008;2022-07-10T02:35:41;387.50;;;154.33;;
4132;SDS011;2080;51.038;7.008;2022-07-10T02:38:06;544.53;;;482.47;;
4132;SDS011;2080;51.038;7.008;2022-07-10T02:40:34;695.60;;;626.80;;
4132;SDS011;2080;51.038;7.008;2022-07-10T02:42:59;790.70;;;719.30;;
4132;SDS011;2080;51.038;7.008;2022-07-10T02:45:27;640.00;;;572.20;;
4132;SDS011;2080;51.038;7.008;2022-07-10T02:47:55;457.67;;;283.17;;
4132;SDS011;2080;51.038;7.008;2022-07-10T02:50:25;544.83;;;464.00;;
4132;SDS011;2080;51.038;7.008;2022-07-10T02:52:53;657.70;;;589.47;;
4132;SDS011;2080;51.038;7.008;2022-07-10T02:55:18;592.80;;;528.70;;
4132;SDS011;2080;51.038;7.008;2022-07-10T02:57:44;655.73;;;586.93;;
4132;SDS011;2080;51.038;7.008;2022-07-10T03:00:11;681.93;;;612.37;;
4132;SDS011;2080;51.038;7.008;2022-07-10T03:02:37;525.40;;;452.40;;
4132;SDS011;2080;51.038;7.008;2022-07-10T03:05:05;547.43;;;488.60;;
4132;SDS011;2080;51.038;7.008;2022-07-10T03:07:31;480.10;;;366.80;;
4132;SDS011;2080;51.038;7.008;2022-07-10T03:10:01;595.27;;;533.17;;
4132;SDS011;2080;51.038;7.008;2022-07-10T03:12:26;589.00;;;527.67;;
4132;SDS011;2080;51.038;7.008;2022-07-10T03:14:51;706.83;;;638.60;;
4132;SDS011;2080;51.038;7.008;2022-07-10T03:17:19;518.50;;;442.00;;
4132;SDS011;2080;51.038;7.008;2022-07-10T03:19:44;493.90;;;420.37;;
4132;SDS011;2080;51.038;7.008;2022-07-10T03:22:10;588.40;;;528.10;;
4132;SDS011;2080;51.038;7.008;2022-07-10T03:24:35;676.97;;;607.07;;
4132;SDS011;2080;51.038;7.008;2022-07-10T03:27:00;678.37;;;610.40;;
4132;SDS011;2080;51.038;7.008;2022-07-10T03:29:26;743.37;;;671.13;;
4132;SDS011;2080;51.038;7.008;2022-07-10T03:31:51;681.10;;;611.77;;
4132;SDS011;2080;51.038;7.008;2022-07-10T03:34:17;563.30;;;480.63;;
4132;SDS011;2080;51.038;7.008;2022-07-10T03:36:44;588.20;;;526.20;;
4132;SDS011;2080;51.038;7.008;2022-07-10T03:39:09;523.13;;;432.90;;
4132;SDS011;2080;51.038;7.008;2022-07-10T03:41:35;606.10;;;540.87;;
4132;SDS011;2080;51.038;7.008;2022-07-10T03:44:05;605.93;;;541.27;;
4132;SDS011;2080;51.038;7.008;2022-07-10T03:46:30;840.60;;;760.53;;
4132;SDS011;2080;51.038;7.008;2022-07-10T03:48:58;628.77;;;562.40;;
4132;SDS011;2080;51.038;7.008;2022-07-10T03:51:23;694.47;;;623.90;;
4132;SDS011;2080;51.038;7.008;2022-07-10T03:53:49;741.97;;;668.30;;
4132;SDS011;2080;51.038;7.008;2022-07-10T03:56:17;571.90;;;497.37;;
4132;SDS011;2080;51.038;7.008;2022-07-10T03:59:03;559.10;;;469.73;;
4132;SDS011;2080;51.038;7.008;2022-07-10T04:01:30;562.33;;;497.23;;
4132;SDS011;2080;51.038;7.008;2022-07-10T04:03:56;554.77;;;461.87;;
4132;SDS011;2080;51.038;7.008;2022-07-10T04:06:21;564.07;;;499.53;;
4132;SDS011;2080;51.038;7.008;2022-07-10T04:08:46;528.53;;;439.53;;
4132;SDS011;2080;51.038;7.008;2022-07-10T04:11:12;631.80;;;564.90;;
4132;SDS011;2080;51.038;7.008;2022-07-10T04:13:42;651.20;;;582.93;;
4132;SDS011;2080;51.038;7.008;2022-07-10T04:16:09;599.83;;;528.40;;
4132;SDS011;2080;51.038;7.008;2022-07-10T04:18:38;567.43;;;495.20;;
4132;SDS011;2080;51.038;7.008;2022-07-10T04:21:04;716.17;;;644.97;;
4132;SDS011;2080;51.038;7.008;2022-07-10T04:23:31;626.77;;;560.47;;
4132;SDS011;2080;51.038;7.008;2022-07-10T04:25:57;491.27;;;415.43;;
4132;SDS011;2080;51.038;7.008;2022-07-10T04:28:22;385.60;;;123.50;;
4132;SDS011;2080;51.038;7.008;2022-07-10T04:30:48;670.03;;;604.33;;
4132;SDS011;2080;51.038;7.008;2022-07-10T04:33:13;522.27;;;462.93;;
4132;SDS011;2080;51.038;7.008;2022-07-10T04:35:41;348.27;;;72.13;;
4132;SDS011;2080;51.038;7.008;2022-07-10T04:38:09;455.07;;;339.60;;
4132;SDS011;2080;51.038;7.008;2022-07-10T04:40:36;520.57;;;433.87;;
4132;SDS011;2080;51.038;7.008;2022-07-10T04:43:02;478.87;;;375.50;;
4132;SDS011;2080;51.038;7.008;2022-07-10T04:45:27;797.57;;;722.00;;
4132;SDS011;2080;51.038;7.008;2022-07-10T04:47:55;464.97;;;333.67;;
4132;SDS011;2080;51.038;7.008;2022-07-10T04:50:20;386.30;;;112.63;;
4132;SDS011;2080;51.038;7.008;2022-07-10T04:52:45;396.27;;;164.50;;
4132;SDS011;2080;51.038;7.008;2022-07-10T04:55:14;460.03;;;321.83;;
4132;SDS011;2080;51.038;7.008;2022-07-10T04:57:39;621.33;;;557.73;;
4132;SDS011;2080;51.038;7.008;2022-07-10T05:00:09;993.73;;;599.60;;
4132;SDS011;2080;51.038;7.008;2022-07-10T05:02:35;610.60;;;545.37;;
4132;SDS011;2080;51.038;7.008;2022-07-10T05:05:00;573.67;;;501.77;;
4132;SDS011;2080;51.038;7.008;2022-07-10T05:07:28;464.57;;;319.40;;
4132;SDS011;2080;51.038;7.008;2022-07-10T05:09:53;429.00;;;217.87;;
4132;SDS011;2080;51.038;7.008;2022-07-10T05:12:19;439.60;;;252.57;;
4132;SDS011;2080;51.038;7.008;2022-07-10T05:14:44;480.67;;;359.63;;
4132;SDS011;2080;51.038;7.008;2022-07-10T05:17:12;430.17;;;260.33;;
4132;SDS011;2080;51.038;7.008;2022-07-10T05:19:37;405.63;;;203.93;;
4132;SDS011;2080;51.038;7.008;2022-07-10T05:22:03;405.07;;;181.80;;
4132;SDS011;2080;51.038;7.008;2022-07-10T05:24:31;405.67;;;191.57;;
4132;SDS011;2080;51.038;7.008;2022-07-10T05:26:56;407.20;;;203.77;;
4132;SDS011;2080;51.038;7.008;2022-07-10T05:29:22;429.10;;;242.67;;
4132;SDS011;2080;51.038;7.008;2022-07-10T05:31:47;417.57;;;214.13;;
4132;SDS011;2080;51.038;7.008;2022-07-10T05:34:12;432.77;;;248.77;;
4132;SDS011;2080;51.038;7.008;2022-07-10T05:36:38;423.90;;;241.57;;
4132;SDS011;2080;51.038;7.008;2022-07-10T05:39:10;475.97;;;356.47;;
4132;SDS011;2080;51.038;7.008;2022-07-10T05:41:36;475.57;;;372.50;;
4132;SDS011;2080;51.038;7.008;2022-07-10T05:44:01;443.97;;;272.93;;
4132;SDS011;2080;51.038;7.008;2022-07-10T05:46:27;462.67;;;338.53;;
4132;SDS011;2080;51.038;7.008;2022-07-10T05:48:53;503.47;;;390.57;;
4132;SDS011;2080;51.038;7.008;2022-07-10T05:51:21;474.20;;;352.20;;
4132;SDS011;2080;51.038;7.008;2022-07-10T05:53:48;519.70;;;436.90;;
4132;SDS011;2080;51.038;7.008;2022-07-10T05:56:16;516.10;;;410.50;;
4132;SDS011;2080;51.038;7.008;2022-07-10T05:58:44;382.63;;;124.27;;
4132;SDS011;2080;51.038;7.008;2022-07-10T06:01:12;426.93;;;243.97;;
4132;SDS011;2080;51.038;7.008;2022-07-10T06:03:39;527.13;;;455.17;;
4132;SDS011;2080;51.038;7.008;2022-07-10T06:06:05;573.20;;;512.80;;
4132;SDS011;2080;51.038;7.008;2022-07-10T06:08:30;479.87;;;369.43;;
4132;SDS011;2080;51.038;7.008;2022-07-10T06:10:55;401.77;;;198.00;;
4132;SDS011;2080;51.038;7.008;2022-07-10T06:13:23;643.53;;;574.53;;
4132;SDS011;2080;51.038;7.008;2022-07-10T06:15:49;397.33;;;141.17;;
4132;SDS011;2080;51.038;7.008;2022-07-10T06:18:14;462.97;;;328.83;;
4132;SDS011;2080;51.038;7.008;2022-07-10T06:20:44;416.27;;;230.77;;
4132;SDS011;2080;51.038;7.008;2022-07-10T06:23:09;422.60;;;235.00;;
4132;SDS011;2080;51.038;7.008;2022-07-10T06:25:37;474.43;;;364.17;;
4132;SDS011;2080;51.038;7.008;2022-07-10T06:28:02;479.20;;;425.77;;
4132;SDS011;2080;51.038;7.008;2022-07-10T06:30:28;423.40;;;232.70;;
4132;SDS011;2080;51.038;7.008;2022-07-10T06:32:53;462.43;;;334.30;;
4132;SDS011;2080;51.038;7.008;2022-07-10T06:35:19;461.07;;;329.63;;
4132;SDS011;2080;51.038;7.008;2022-07-10T06:37:44;389.43;;;149.77;;
4132;SDS011;2080;51.038;7.008;2022-07-10T06:40:11;386.23;;;122.10;;
4132;SDS011;2080;51.038;7.008;2022-07-10T06:42:39;390.17;;;156.93;;
4132;SDS011;2080;51.038;7.008;2022-07-10T06:45:07;480.67;;;353.33;;
4132;SDS011;2080;51.038;7.008;2022-07-10T06:47:32;494.93;;;425.60;;
4132;SDS011;2080;51.038;7.008;2022-07-10T06:50:19;388.80;;;146.07;;
4132;SDS011;2080;51.038;7.008;2022-07-10T06:52:47;433.33;;;231.63;;
4132;SDS011;2080;51.038;7.008;2022-07-10T06:55:14;490.97;;;429.87;;
4132;SDS011;2080;51.038;7.008;2022-07-10T06:57:40;462.97;;;351.70;;
4132;SDS011;2080;51.038;7.008;2022-07-10T07:00:08;491.63;;;432.70;;
4132;SDS011;2080;51.038;7.008;2022-07-10T07:02:37;418.20;;;213.23;;
4132;SDS011;2080;51.038;7.008;2022-07-10T07:05:05;508.40;;;440.37;;
4132;SDS011;2080;51.038;7.008;2022-07-10T07:07:31;484.43;;;410.50;;
4132;SDS011;2080;51.038;7.008;2022-07-10T07:10:01;493.73;;;413.27;;
4132;SDS011;2080;51.038;7.008;2022-07-10T07:12:28;448.83;;;291.97;;
4132;SDS011;2080;51.038;7.008;2022-07-10T07:14:53;499.83;;;428.97;;
4132;SDS011;2080;51.038;7.008;2022-07-10T07:17:18;520.17;;;431.10;;
4132;SDS011;2080;51.038;7.008;2022-07-10T07:19:48;516.27;;;419.47;;
4132;SDS011;2080;51.038;7.008;2022-07-10T07:22:32;411.50;;;214.03;;
4132;SDS011;2080;51.038;7.008;2022-07-10T07:25:18;544.47;;;487.43;;
4132;SDS011;2080;51.038;7.008;2022-07-10T07:27:46;571.10;;;512.33;;
4132;SDS011;2080;51.038;7.008;2022-07-10T07:30:12;452.10;;;320.57;;
4132;SDS011;2080;51.038;7.008;2022-07-10T07:32:45;460.43;;;362.27;;
4132;SDS011;2080;51.038;7.008;2022-07-10T07:35:12;608.73;;;550.30;;
4132;SDS011;2080;51.038;7.008;2022-07-10T07:37:42;433.43;;;262.03;;
4132;SDS011;2080;51.038;7.008;2022-07-10T07:40:11;482.53;;;381.00;;
4132;SDS011;2080;51.038;7.008;2022-07-10T07:42:41;492.87;;;376.83;;
4132;SDS011;2080;51.038;7.008;2022-07-10T07:45:09;444.17;;;284.13;;
4132;SDS011;2080;51.038;7.008;2022-07-10T07:47:43;459.03;;;303.23;;
4132;SDS011;2080;51.038;7.008;2022-07-10T07:50:15;466.33;;;374.30;;
4132;SDS011;2080;51.038;7.008;2022-07-10T07:52:46;470.00;;;373.07;;
4132;SDS011;2080;51.038;7.008;2022-07-10T07:55:13;485.33;;;422.67;;
4132;SDS011;2080;51.038;7.008;2022-07-10T07:57:39;429.93;;;328.97;;
4132;SDS011;2080;51.038;7.008;2022-07-10T08:00:08;455.37;;;341.20;;
4132;SDS011;2080;51.038;7.008;2022-07-10T08:02:35;479.43;;;427.73;;
4132;SDS011;2080;51.038;7.008;2022-07-10T08:05:01;524.43;;;469.63;;
4132;SDS011;2080;51.038;7.008;2022-07-10T08:07:39;498.07;;;443.70;;
4132;SDS011;2080;51.038;7.008;2022-07-10T08:10:12;467.53;;;391.20;;
4132;SDS011;2080;51.038;7.008;2022-07-10T08:12:39;501.20;;;448.23;;
4132;SDS011;2080;51.038;7.008;2022-07-10T08:15:09;475.17;;;405.83;;
4132;SDS011;2080;51.038;7.008;2022-07-10T08:17:37;437.20;;;362.87;;
4132;SDS011;2080;51.038;7.008;2022-07-10T08:20:03;445.63;;;380.13;;
4132;SDS011;2080;51.038;7.008;2022-07-10T08:22:30;504.33;;;447.17;;
4132;SDS011;2080;51.038;7.008;2022-07-10T08:24:58;475.77;;;405.30;;
4132;SDS011;2080;51.038;7.008;2022-07-10T08:27:23;470.97;;;419.93;;
4132;SDS011;2080;51.038;7.008;2022-07-10T08:29:49;474.33;;;422.10;;
4132;SDS011;2080;51.038;7.008;2022-07-10T08:32:17;485.07;;;397.97;;
4132;SDS011;2080;51.038;7.008;2022-07-10T08:34:48;456.17;;;322.00;;
4132;SDS011;2080;51.038;7.008;2022-07-10T08:37:15;477.67;;;380.67;;
4132;SDS011;2080;51.038;7.008;2022-07-10T08:39:41;472.47;;;368.23;;
4132;SDS011;2080;51.038;7.008;2022-07-10T08:42:09;489.90;;;418.73;;
4132;SDS011;2080;51.038;7.008;2022-07-10T08:44:35;464.23;;;353.83;;
4132;SDS011;2080;51.038;7.008;2022-07-10T08:47:03;555.23;;;497.67;;
4132;SDS011;2080;51.038;7.008;2022-07-10T08:49:30;437.83;;;294.40;;
4132;SDS011;2080;51.038;7.008;2022-07-10T08:52:12;479.20;;;380.80;;
4132;SDS011;2080;51.038;7.008;2022-07-10T08:54:55;466.67;;;400.90;;
4132;SDS011;2080;51.038;7.008;2022-07-10T08:57:20;514.57;;;460.67;;
4132;SDS011;2080;51.038;7.008;2022-07-10T08:59:47;454.60;;;381.00;;
4132;SDS011;2080;51.038;7.008;2022-07-10T09:02:13;455.90;;;394.03;;
4132;SDS011;2080;51.038;7.008;2022-07-10T09:04:38;466.83;;;415.53;;
4132;SDS011;2080;51.038;7.008;2022-07-10T09:07:03;447.67;;;362.83;;
4132;SDS011;2080;51.038;7.008;2022-07-10T09:09:31;483.87;;;431.27;;
4132;SDS011;2080;51.038;7.008;2022-07-10T09:12:15;401.70;;;213.40;;
4132;SDS011;2080;51.038;7.008;2022-07-10T09:14:43;458.63;;;358.87;;
4132;SDS011;2080;51.038;7.008;2022-07-10T09:17:08;549.87;;;493.60;;
4132;SDS011;2080;51.038;7.008;2022-07-10T09:19:34;600.73;;;541.33;;
4132;SDS011;2080;51.038;7.008;2022-07-10T09:22:04;514.77;;;460.73;;
4132;SDS011;2080;51.038;7.008;2022-07-10T09:24:35;522.03;;;468.07;;
4132;SDS011;2080;51.038;7.008;2022-07-10T09:29:30;466.90;;;413.77;;
4132;SDS011;2080;51.038;7.008;2022-07-10T09:32:09;447.43;;;392.93;;
4132;SDS011;2080;51.038;7.008;2022-07-10T09:34:38;419.40;;;281.43;;
4132;SDS011;2080;51.038;7.008;2022-07-10T09:39:54;536.73;;;482.43;;
4132;SDS011;2080;51.038;7.008;2022-07-10T09:42:37;454.77;;;396.27;;
4132;SDS011;2080;51.038;7.008;2022-07-10T09:47:42;410.63;;;245.37;;
4132;SDS011;2080;51.038;7.008;2022-07-10T09:53:11;640.60;;;578.47;;
4132;SDS011;2080;51.038;7.008;2022-07-10T09:55:37;504.67;;;450.90;;
4132;SDS011;2080;51.038;7.008;2022-07-10T10:03:07;389.00;;;181.50;;
4132;SDS011;2080;51.038;7.008;2022-07-10T10:05:39;478.33;;;406.63;;
4132;SDS011;2080;51.038;7.008;2022-07-10T10:08:22;460.23;;;398.97;;
4132;SDS011;2080;51.038;7.008;2022-07-10T10:10:49;440.23;;;312.00;;
4132;SDS011;2080;51.038;7.008;2022-07-10T10:13:16;379.63;;;126.33;;
4132;SDS011;2080;51.038;7.008;2022-07-10T10:15:43;398.23;;;172.73;;
4132;SDS011;2080;51.038;7.008;2022-07-10T10:18:11;373.60;;;140.53;;
4132;SDS011;2080;51.038;7.008;2022-07-10T10:20:40;402.97;;;217.47;;
4132;SDS011;2080;51.038;7.008;2022-07-10T10:23:12;425.90;;;259.10;;
4132;SDS011;2080;51.038;7.008;2022-07-10T10:25:42;457.13;;;342.27;;
4132;SDS011;2080;51.038;7.008;2022-07-10T10:28:09;586.27;;;525.87;;
4132;SDS011;2080;51.038;7.008;2022-07-10T10:30:42;527.27;;;470.20;;
4132;SDS011;2080;51.038;7.008;2022-07-10T10:35:55;491.57;;;400.93;;
4132;SDS011;2080;51.038;7.008;2022-07-10T10:38:21;506.77;;;422.90;;
4132;SDS011;2080;51.038;7.008;2022-07-10T10:40:47;472.13;;;369.63;;
4132;SDS011;2080;51.038;7.008;2022-07-10T10:45:42;535.90;;;476.57;;
4132;SDS011;2080;51.038;7.008;2022-07-10T10:48:08;479.70;;;394.50;;
4132;SDS011;2080;51.038;7.008;2022-07-10T10:53:13;543.13;;;486.47;;
4132;SDS011;2080;51.038;7.008;2022-07-10T10:55:40;525.60;;;469.73;;
4132;SDS011;2080;51.038;7.008;2022-07-10T10:58:15;527.40;;;470.50;;
4132;SDS011;2080;51.038;7.008;2022-07-10T11:00:49;525.67;;;469.17;;
4132;SDS011;2080;51.038;7.008;2022-07-10T11:03:15;523.73;;;469.93;;
4132;SDS011;2080;51.038;7.008;2022-07-10T11:05:50;437.20;;;364.90;;
4132;SDS011;2080;51.038;7.008;2022-07-10T11:08:34;612.43;;;554.33;;
4132;SDS011;2080;51.038;7.008;2022-07-10T11:11:03;588.53;;;531.37;;
4132;SDS011;2080;51.038;7.008;2022-07-10T11:14:01;549.43;;;494.77;;
4132;SDS011;2080;51.038;7.008;2022-07-10T11:16:31;517.60;;;464.93;;
4132;SDS011;2080;51.038;7.008;2022-07-10T11:18:57;592.47;;;535.53;;
4132;SDS011;2080;51.038;7.008;2022-07-10T11:21:24;455.50;;;342.63;;
4132;SDS011;2080;51.038;7.008;2022-07-10T11:24:13;451.90;;;314.60;;
4132;SDS011;2080;51.038;7.008;2022-07-10T11:27:02;440.97;;;312.00;;
4132;SDS011;2080;51.038;7.008;2022-07-10T11:29:39;648.47;;;585.73;;
4132;SDS011;2080;51.038;7.008;2022-07-10T11:32:09;566.00;;;507.20;;
4132;SDS011;2080;51.038;7.008;2022-07-10T11:34:39;519.87;;;459.47;;
4132;SDS011;2080;51.038;7.008;2022-07-10T11:37:15;513.20;;;456.83;;
4132;SDS011;2080;51.038;7.008;2022-07-10T11:39:43;499.60;;;439.80;;
4132;SDS011;2080;51.038;7.008;2022-07-10T11:42:09;568.17;;;510.77;;
4132;SDS011;2080;51.038;7.008;2022-07-10T11:44:34;631.47;;;570.23;;
4132;SDS011;2080;51.038;7.008;2022-07-10T11:47:00;608.07;;;549.57;;
4132;SDS011;2080;51.038;7.008;2022-07-10T11:49:28;465.53;;;357.13;;
4132;SDS011;2080;51.038;7.008;2022-07-10T11:51:53;569.30;;;513.90;;
4132;SDS011;2080;51.038;7.008;2022-07-10T11:54:23;554.77;;;497.20;;
4132;SDS011;2080;51.038;7.008;2022-07-10T11:56:49;531.73;;;473.00;;
4132;SDS011;2080;51.038;7.008;2022-07-10T11:59:23;585.03;;;525.50;;
4132;SDS011;2080;51.038;7.008;2022-07-10T12:01:51;579.40;;;520.53;;
4132;SDS011;2080;51.038;7.008;2022-07-10T12:04:21;568.57;;;510.37;;
4132;SDS011;2080;51.038;7.008;2022-07-10T12:06:51;507.53;;;443.40;;
4132;SDS011;2080;51.038;7.008;2022-07-10T12:09:21;491.70;;;417.37;;
4132;SDS011;2080;51.038;7.008;2022-07-10T12:12:03;606.73;;;545.13;;
4132;SDS011;2080;51.038;7.008;2022-07-10T12:14:30;632.60;;;569.10;;
4132;SDS011;2080;51.038;7.008;2022-07-10T12:16:56;515.67;;;444.73;;
4132;SDS011;2080;51.038;7.008;2022-07-10T12:19:23;513.67;;;422.67;;
4132;SDS011;2080;51.038;7.008;2022-07-10T12:21:52;477.10;;;360.40;;
4132;SDS011;2080;51.038;7.008;2022-07-10T12:24:21;378.83;;;149.23;;
4132;SDS011;2080;51.038;7.008;2022-07-10T12:26:48;487.83;;;377.23;;
4132;SDS011;2080;51.038;7.008;2022-07-10T12:31:53;425.30;;;229.97;;
4132;SDS011;2080;51.038;7.008;2022-07-10T12:34:39;674.80;;;601.97;;
4132;SDS011;2080;51.038;7.008;2022-07-10T12:37:14;426.60;;;234.23;;
4132;SDS011;2080;51.038;7.008;2022-07-10T12:39:48;941.53;;;857.57;;
4132;SDS011;2080;51.038;7.008;2022-07-10T12:42:27;499.83;;;392.27;;
4132;SDS011;2080;51.038;7.008;2022-07-10T12:47:44;628.73;;;569.00;;
4132;SDS011;2080;51.038;7.008;2022-07-10T12:50:10;478.23;;;383.30;;
4132;SDS011;2080;51.038;7.008;2022-07-10T12:52:40;376.57;;;146.07;;
4132;SDS011;2080;51.038;7.008;2022-07-10T12:57:35;485.33;;;414.90;;
4132;SDS011;2080;51.038;7.008;2022-07-10T13:03:05;775.00;;;707.20;;
4132;SDS011;2080;51.038;7.008;2022-07-10T13:05:36;1540.43;;;852.63;;
4132;SDS011;2080;51.038;7.008;2022-07-10T13:08:13;1999.90;;;999.90;;
4132;SDS011;2080;51.038;7.008;2022-07-10T13:10:42;1999.90;;;999.90;;
4132;SDS011;2080;51.038;7.008;2022-07-10T13:13:11;1999.90;;;999.90;;
4132;SDS011;2080;51.038;7.008;2022-07-10T13:15:40;929.53;;;447.77;;
4132;SDS011;2080;51.038;7.008;2022-07-10T13:18:27;1999.90;;;999.90;;
4132;SDS011;2080;51.038;7.008;2022-07-10T13:20:56;936.77;;;453.27;;
4132;SDS011;2080;51.038;7.008;2022-07-10T13:23:25;1999.90;;;999.90;;
4132;SDS011;2080;51.038;7.008;2022-07-10T13:25:56;1999.90;;;999.90;;
4132;SDS011;2080;51.038;7.008;2022-07-10T13:28:26;382.77;;;153.17;;
4132;SDS011;2080;51.038;7.008;2022-07-10T13:30:51;470.77;;;307.63;;
4132;SDS011;2080;51.038;7.008;2022-07-10T13:33:17;402.07;;;187.57;;
4132;SDS011;2080;51.038;7.008;2022-07-10T13:35:45;1458.73;;;706.10;;
4132;SDS011;2080;51.038;7.008;2022-07-10T13:38:13;365.70;;;124.37;;
4132;SDS011;2080;51.038;7.008;2022-07-10T13:40:39;387.17;;;117.83;;
4132;SDS011;2080;51.038;7.008;2022-07-10T13:43:08;366.17;;;109.87;;
4132;SDS011;2080;51.038;7.008;2022-07-10T13:45:35;375.57;;;127.63;;
4132;SDS011;2080;51.038;7.008;2022-07-10T13:48:08;459.73;;;296.83;;
4132;SDS011;2080;51.038;7.008;2022-07-10T13:50:40;393.77;;;188.33;;
4132;SDS011;2080;51.038;7.008;2022-07-10T13:53:07;411.80;;;242.43;;
4132;SDS011;2080;51.038;7.008;2022-07-10T13:55:33;436.73;;;323.63;;
4132;SDS011;2080;51.038;7.008;2022-07-10T13:57:59;524.87;;;470.87;;
4132;SDS011;2080;51.038;7.008;2022-07-10T14:00:25;699.60;;;636.70;;
4132;SDS011;2080;51.038;7.008;2022-07-10T14:02:50;671.20;;;610.23;;
4132;SDS011;2080;51.038;7.008;2022-07-10T14:05:16;489.40;;;437.60;;
4132;SDS011;2080;51.038;7.008;2022-07-10T14:07:41;327.70;;;94.17;;
4132;SDS011;2080;51.038;7.008;2022-07-10T14:10:07;307.57;;;55.27;;
4132;SDS011;2080;51.038;7.008;2022-07-10T14:12:33;309.80;;;63.33;;
4132;SDS011;2080;51.038;7.008;2022-07-10T14:14:59;304.87;;;45.80;;
4132;SDS011;2080;51.038;7.008;2022-07-10T14:17:25;302.87;;;46.17;;
4132;SDS011;2080;51.038;7.008;2022-07-10T14:19:54;308.10;;;39.20;;
4132;SDS011;2080;51.038;7.008;2022-07-10T14:22:20;301.27;;;36.87;;
4132;SDS011;2080;51.038;7.008;2022-07-10T14:24:46;305.53;;;55.40;;
4132;SDS011;2080;51.038;7.008;2022-07-10T14:27:14;361.57;;;141.23;;
4132;SDS011;2080;51.038;7.008;2022-07-10T14:29:40;452.30;;;392.67;;
4132;SDS011;2080;51.038;7.008;2022-07-10T14:32:05;350.27;;;131.73;;
4132;SDS011;2080;51.038;7.008;2022-07-10T14:34:31;413.70;;;233.50;;
4132;SDS011;2080;51.038;7.008;2022-07-10T14:36:58;570.37;;;514.87;;
4132;SDS011;2080;51.038;7.008;2022-07-10T14:39:26;588.37;;;531.57;;
4132;SDS011;2080;51.038;7.008;2022-07-10T14:41:52;466.23;;;374.00;;
4132;SDS011;2080;51.038;7.008;2022-07-10T14:44:17;432.23;;;289.53;;
4132;SDS011;2080;51.038;7.008;2022-07-10T14:46:42;404.70;;;264.37;;
4132;SDS011;2080;51.038;7.008;2022-07-10T14:49:10;370.97;;;107.30;;
4132;SDS011;2080;51.038;7.008;2022-07-10T14:51:36;654.87;;;594.73;;
4132;SDS011;2080;51.038;7.008;2022-07-10T14:54:02;624.97;;;566.03;;
4132;SDS011;2080;51.038;7.008;2022-07-10T14:56:27;658.80;;;597.97;;
4132;SDS011;2080;51.038;7.008;2022-07-10T14:58:54;659.47;;;598.97;;
4132;SDS011;2080;51.038;7.008;2022-07-10T15:01:25;630.60;;;570.73;;